sensor_id;sensor_type;location;lat;lon;timestamp;temperature;humidity
46139;DHT22;32398;49.112;8.598;2023-11-19T00:00:25;8.90;99.90
46139;DHT22;32398;49.112;8.598;2023-11-19T00:02:51;8.90;99.90
46139;DHT22;32398;49.112;8.598;2023-11-19T00:05:18;8.90;99.90
46139;DHT22;32398;49.112;8.598;2023-11-19T00:07:45;8.90;99.90
46139;DHT22;32398;49.112;8.598;2023-11-19T00:10:13;8.90;99.90
46139;DHT22;32398;49.112;8.598;2023-11-19T00:12:44;8.80;99.90
46139;DHT22;32398;49.112;8.598;2023-11-19T00:15:11;8.90;99.90
46139;DHT22;32398;49.112;8.598;2023-11-19T00:17:37;8.90;99.90
46139;DHT22;32398;49.112;8.598;2023-11-19T00:20:06;8.90;99.90
46139;DHT22;32398;49.112;8.598;2023-11-19T00:22:33;8.90;99.90
46139;DHT22;32398;49.112;8.598;2023-11-19T00:24:59;8.90;99.90
46139;DHT22;32398;49.112;8.598;2023-11-19T00:27:27;8.90;99.90
46139;DHT22;32398;49.112;8.598;2023-11-19T00:29:54;9.00;99.90
46139;DHT22;32398;49.112;8.598;2023-11-19T00:32:21;9.00;99.90
46139;DHT22;32398;49.112;8.598;2023-11-19T00:34:47;8.90;99.90
46139;DHT22;32398;49.112;8.598;2023-11-19T00:37:14;9.00;99.90
46139;DHT22;32398;49.112;8.598;2023-11-19T00:39:41;9.00;99.90
46139;DHT22;32398;49.112;8.598;2023-11-19T00:42:09;9.00;99.90
46139;DHT22;32398;49.112;8.598;2023-11-19T00:44:37;9.00;99.90
46139;DHT22;32398;49.112;8.598;2023-11-19T00:47:03;9.00;99.90
46139;DHT22;32398;49.112;8.598;2023-11-19T00:49:30;9.00;99.90
46139;DHT22;32398;49.112;8.598;2023-11-19T00:51:58;9.00;99.90
46139;DHT22;32398;49.112;8.598;2023-11-19T00:54:24;9.00;99.90
46139;DHT22;32398;49.112;8.598;2023-11-19T00:56:51;9.10;99.90
46139;DHT22;32398;49.112;8.598;2023-11-19T00:59:18;9.00;99.90
46139;DHT22;32398;49.112;8.598;2023-11-19T01:01:46;9.10;99.90
46139;DHT22;32398;49.112;8.598;2023-11-19T01:04:13;9.10;99.90
46139;DHT22;32398;49.112;8.598;2023-11-19T01:06:39;9.10;99.90
46139;DHT22;32398;49.112;8.598;2023-11-19T01:09:07;9.10;99.90
46139;DHT22;32398;49.112;8.598;2023-11-19T01:11:34;9.10;99.90
46139;DHT22;32398;49.112;8.598;2023-11-19T01:14:00;9.10;99.90
46139;DHT22;32398;49.112;8.598;2023-11-19T01:16:27;9.20;99.90
46139;DHT22;32398;49.112;8.598;2023-11-19T01:18:55;9.20;99.90
46139;DHT22;32398;49.112;8.598;2023-11-19T01:21:22;9.20;99.90
46139;DHT22;32398;49.112;8.598;2023-11-19T01:23:48;9.20;99.90
46139;DHT22;32398;49.112;8.598;2023-11-19T01:26:15;9.20;99.90
46139;DHT22;32398;49.112;8.598;2023-11-19T01:28:42;9.20;99.90
46139;DHT22;32398;49.112;8.598;2023-11-19T01:31:10;9.20;99.90
46139;DHT22;32398;49.112;8.598;2023-11-19T01:33:38;9.20;99.90
46139;DHT22;32398;49.112;8.598;2023-11-19T01:36:06;9.30;99.90
46139;DHT22;32398;49.112;8.598;2023-11-19T01:38:33;9.30;99.90
46139;DHT22;32398;49.112;8.598;2023-11-19T01:41:00;9.30;99.90
46139;DHT22;32398;49.112;8.598;2023-11-19T01:43:33;9.30;99.90
46139;DHT22;32398;49.112;8.598;2023-11-19T01:46:00;9.30;99.90
46139;DHT22;32398;49.112;8.598;2023-11-19T01:48:27;9.30;99.90
46139;DHT22;32398;49.112;8.598;2023-11-19T01:50:53;9.40;99.90
46139;DHT22;32398;49.112;8.598;2023-11-19T01:53:22;9.40;99.90
46139;DHT22;32398;49.112;8.598;2023-11-19T01:55:48;9.30;99.90
46139;DHT22;32398;49.112;8.598;2023-11-19T01:58:15;9.40;99.90
46139;DHT22;32398;49.112;8.598;2023-11-19T02:00:43;9.30;99.90
46139;DHT22;32398;49.112;8.598;2023-11-19T02:03:10;9.40;99.90
46139;DHT22;32398;49.112;8.598;2023-11-19T02:05:37;9.40;99.90
46139;DHT22;32398;49.112;8.598;2023-11-19T02:08:05;9.40;99.90
46139;DHT22;32398;49.112;8.598;2023-11-19T02:10:33;9.40;99.90
46139;DHT22;32398;49.112;8.598;2023-11-19T02:13:00;9.40;99.90
46139;DHT22;32398;49.112;8.598;2023-11-19T02:15:26;9.40;99.90
46139;DHT22;32398;49.112;8.598;2023-11-19T02:17:53;9.50;99.90
46139;DHT22;32398;49.112;8.598;2023-11-19T02:20:20;9.50;99.90
46139;DHT22;32398;49.112;8.598;2023-11-19T02:22:46;9.50;99.90
46139;DHT22;32398;49.112;8.598;2023-11-19T02:25:15;9.50;99.90
46139;DHT22;32398;49.112;8.598;2023-11-19T02:27:49;9.50;99.90
46139;DHT22;32398;49.112;8.598;2023-11-19T02:30:16;9.50;99.90
46139;DHT22;32398;49.112;8.598;2023-11-19T02:32:43;9.50;99.90
46139;DHT22;32398;49.112;8.598;2023-11-19T02:35:10;9.50;99.90
46139;DHT22;32398;49.112;8.598;2023-11-19T02:37:37;9.50;99.90
46139;DHT22;32398;49.112;8.598;2023-11-19T02:40:04;9.50;99.90
46139;DHT22;32398;49.112;8.598;2023-11-19T02:42:34;9.60;99.90
46139;DHT22;32398;49.112;8.598;2023-11-19T02:45:02;9.60;99.90
46139;DHT22;32398;49.112;8.598;2023-11-19T02:47:32;9.60;99.90
46139;DHT22;32398;49.112;8.598;2023-11-19T02:49:59;9.60;99.90
46139;DHT22;32398;49.112;8.598;2023-11-19T02:52:26;9.60;99.90
46139;DHT22;32398;49.112;8.598;2023-11-19T02:54:52;9.60;99.90
46139;DHT22;32398;49.112;8.598;2023-11-19T02:57:19;9.60;99.90
46139;DHT22;32398;49.112;8.598;2023-11-19T02:59:46;9.70;99.90
46139;DHT22;32398;49.112;8.598;2023-11-19T03:02:14;9.60;99.90
46139;DHT22;32398;49.112;8.598;2023-11-19T03:04:41;9.70;99.90
46139;DHT22;32398;49.112;8.598;2023-11-19T03:07:10;9.70;99.90
46139;DHT22;32398;49.112;8.598;2023-11-19T03:09:38;9.70;99.90
46139;DHT22;32398;49.112;8.598;2023-11-19T03:12:06;9.70;99.90
46139;DHT22;32398;49.112;8.598;2023-11-19T03:14:33;9.70;99.90
46139;DHT22;32398;49.112;8.598;2023-11-19T03:16:59;9.70;99.90
46139;DHT22;32398;49.112;8.598;2023-11-19T03:19:27;9.70;99.90
46139;DHT22;32398;49.112;8.598;2023-11-19T03:21:54;9.70;99.90
46139;DHT22;32398;49.112;8.598;2023-11-19T03:24:21;9.70;99.90
46139;DHT22;32398;49.112;8.598;2023-11-19T03:26:47;9.80;99.90
46139;DHT22;32398;49.112;8.598;2023-11-19T03:29:15;9.80;99.90
46139;DHT22;32398;49.112;8.598;2023-11-19T03:31:42;9.80;99.90
46139;DHT22;32398;49.112;8.598;2023-11-19T03:34:08;9.80;99.90
46139;DHT22;32398;49.112;8.598;2023-11-19T03:36:36;9.80;99.90
46139;DHT22;32398;49.112;8.598;2023-11-19T03:39:03;9.80;99.90
46139;DHT22;32398;49.112;8.598;2023-11-19T03:41:29;9.80;99.90
46139;DHT22;32398;49.112;8.598;2023-11-19T03:43:56;9.80;99.90
46139;DHT22;32398;49.112;8.598;2023-11-19T03:46:22;9.80;99.90
46139;DHT22;32398;49.112;8.598;2023-11-19T03:48:49;9.90;99.90
46139;DHT22;32398;49.112;8.598;2023-11-19T03:51:16;9.80;99.90
46139;DHT22;32398;49.112;8.598;2023-11-19T03:53:44;9.90;99.90
46139;DHT22;32398;49.112;8.598;2023-11-19T03:56:11;9.90;99.90
46139;DHT22;32398;49.112;8.598;2023-11-19T03:58:38;9.90;99.90
46139;DHT22;32398;49.112;8.598;2023-11-19T04:01:05;9.90;99.90
46139;DHT22;32398;49.112;8.598;2023-11-19T04:03:32;9.90;99.90
46139;DHT22;32398;49.112;8.598;2023-11-19T04:05:58;9.90;99.90
46139;DHT22;32398;49.112;8.598;2023-11-19T04:08:25;9.90;99.90
46139;DHT22;32398;49.112;8.598;2023-11-19T04:10:53;9.90;99.90
46139;DHT22;32398;49.112;8.598;2023-11-19T04:13:19;10.00;99.90
46139;DHT22;32398;49.112;8.598;2023-11-19T04:15:46;10.00;99.90
46139;DHT22;32398;49.112;8.598;2023-11-19T04:18:12;10.00;99.90
46139;DHT22;32398;49.112;8.598;2023-11-19T04:20:39;10.00;99.90
46139;DHT22;32398;49.112;8.598;2023-11-19T04:23:07;10.00;99.90
46139;DHT22;32398;49.112;8.598;2023-11-19T04:25:34;10.00;99.90
46139;DHT22;32398;49.112;8.598;2023-11-19T04:28:02;10.00;99.90
46139;DHT22;32398;49.112;8.598;2023-11-19T04:30:29;10.00;99.90
46139;DHT22;32398;49.112;8.598;2023-11-19T04:32:57;10.00;99.90
46139;DHT22;32398;49.112;8.598;2023-11-19T04:35:23;10.10;99.90
46139;DHT22;32398;49.112;8.598;2023-11-19T04:37:51;10.00;99.90
46139;DHT22;32398;49.112;8.598;2023-11-19T04:40:18;10.10;99.90
46139;DHT22;32398;49.112;8.598;2023-11-19T04:42:44;10.00;99.90
46139;DHT22;32398;49.112;8.598;2023-11-19T04:45:12;10.10;99.90
46139;DHT22;32398;49.112;8.598;2023-11-19T04:47:39;10.10;99.90
46139;DHT22;32398;49.112;8.598;2023-11-19T04:50:06;10.10;99.90
46139;DHT22;32398;49.112;8.598;2023-11-19T04:52:36;10.10;99.90
46139;DHT22;32398;49.112;8.598;2023-11-19T04:55:03;10.10;99.90
46139;DHT22;32398;49.112;8.598;2023-11-19T04:57:30;10.10;99.90
46139;DHT22;32398;49.112;8.598;2023-11-19T04:59:58;10.10;99.90
46139;DHT22;32398;49.112;8.598;2023-11-19T05:02:25;10.10;99.90
46139;DHT22;32398;49.112;8.598;2023-11-19T05:04:52;10.20;99.90
46139;DHT22;32398;49.112;8.598;2023-11-19T05:07:19;10.10;99.90
46139;DHT22;32398;49.112;8.598;2023-11-19T05:09:45;10.10;99.90
46139;DHT22;32398;49.112;8.598;2023-11-19T05:12:12;10.10;99.90
46139;DHT22;32398;49.112;8.598;2023-11-19T05:14:39;10.20;99.90
46139;DHT22;32398;49.112;8.598;2023-11-19T05:17:05;10.20;99.90
46139;DHT22;32398;49.112;8.598;2023-11-19T05:19:34;10.20;99.90
46139;DHT22;32398;49.112;8.598;2023-11-19T05:22:01;10.20;99.90
46139;DHT22;32398;49.112;8.598;2023-11-19T05:24:27;10.20;99.90
46139;DHT22;32398;49.112;8.598;2023-11-19T05:26:54;10.20;99.90
46139;DHT22;32398;49.112;8.598;2023-11-19T05:29:21;10.20;99.90
46139;DHT22;32398;49.112;8.598;2023-11-19T05:31:48;10.20;99.90
46139;DHT22;32398;49.112;8.598;2023-11-19T05:34:14;10.20;99.90
46139;DHT22;32398;49.112;8.598;2023-11-19T05:36:42;10.30;99.90
46139;DHT22;32398;49.112;8.598;2023-11-19T05:39:09;10.20;99.90
46139;DHT22;32398;49.112;8.598;2023-11-19T05:41:36;10.30;99.90
46139;DHT22;32398;49.112;8.598;2023-11-19T05:44:03;10.30;99.90
46139;DHT22;32398;49.112;8.598;2023-11-19T05:46:30;10.30;99.90
46139;DHT22;32398;49.112;8.598;2023-11-19T05:48:56;10.30;99.90
46139;DHT22;32398;49.112;8.598;2023-11-19T05:51:23;10.30;99.90
46139;DHT22;32398;49.112;8.598;2023-11-19T05:53:52;10.30;99.90
46139;DHT22;32398;49.112;8.598;2023-11-19T05:56:20;10.30;99.90
46139;DHT22;32398;49.112;8.598;2023-11-19T05:58:47;10.30;99.90
46139;DHT22;32398;49.112;8.598;2023-11-19T06:01:14;10.40;99.90
46139;DHT22;32398;49.112;8.598;2023-11-19T06:03:41;10.40;99.90
46139;DHT22;32398;49.112;8.598;2023-11-19T06:06:08;10.40;99.90
46139;DHT22;32398;49.112;8.598;2023-11-19T06:08:35;10.40;99.90
46139;DHT22;32398;49.112;8.598;2023-11-19T06:11:04;10.40;99.90
46139;DHT22;32398;49.112;8.598;2023-11-19T06:13:31;10.40;99.90
46139;DHT22;32398;49.112;8.598;2023-11-19T06:15:57;10.40;99.90
46139;DHT22;32398;49.112;8.598;2023-11-19T06:18:24;10.50;99.90
46139;DHT22;32398;49.112;8.598;2023-11-19T06:20:51;10.40;99.90
46139;DHT22;32398;49.112;8.598;2023-11-19T06:23:17;10.40;99.90
46139;DHT22;32398;49.112;8.598;2023-11-19T06:25:44;10.50;99.90
46139;DHT22;32398;49.112;8.598;2023-11-19T06:28:12;10.50;99.90
46139;DHT22;32398;49.112;8.598;2023-11-19T06:30:39;10.50;99.90
46139;DHT22;32398;49.112;8.598;2023-11-19T06:33:06;10.50;99.90
46139;DHT22;32398;49.112;8.598;2023-11-19T06:35:33;10.50;99.90
46139;DHT22;32398;49.112;8.598;2023-11-19T06:38:02;10.40;99.90
46139;DHT22;32398;49.112;8.598;2023-11-19T06:40:29;10.50;99.90
46139;DHT22;32398;49.112;8.598;2023-11-19T06:42:56;10.50;99.90
46139;DHT22;32398;49.112;8.598;2023-11-19T06:45:24;10.50;99.90
46139;DHT22;32398;49.112;8.598;2023-11-19T06:47:50;10.50;99.90
46139;DHT22;32398;49.112;8.598;2023-11-19T06:50:17;10.50;99.90
46139;DHT22;32398;49.112;8.598;2023-11-19T06:52:44;10.50;99.90
46139;DHT22;32398;49.112;8.598;2023-11-19T06:55:11;10.60;99.90
46139;DHT22;32398;49.112;8.598;2023-11-19T06:57:37;10.60;99.90
46139;DHT22;32398;49.112;8.598;2023-11-19T07:00:05;10.60;99.90
46139;DHT22;32398;49.112;8.598;2023-11-19T07:02:33;10.60;99.90
46139;DHT22;32398;49.112;8.598;2023-11-19T07:04:59;10.60;99.90
46139;DHT22;32398;49.112;8.598;2023-11-19T07:07:26;10.60;99.90
46139;DHT22;32398;49.112;8.598;2023-11-19T07:09:53;10.60;99.90
46139;DHT22;32398;49.112;8.598;2023-11-19T07:12:19;10.60;99.90
46139;DHT22;32398;49.112;8.598;2023-11-19T07:14:46;10.60;99.90
46139;DHT22;32398;49.112;8.598;2023-11-19T07:17:12;10.60;99.90
46139;DHT22;32398;49.112;8.598;2023-11-19T07:19:42;10.60;99.90
46139;DHT22;32398;49.112;8.598;2023-11-19T07:22:09;10.70;99.90
46139;DHT22;32398;49.112;8.598;2023-11-19T07:24:38;10.70;99.90
46139;DHT22;32398;49.112;8.598;2023-11-19T07:27:05;10.70;99.90
46139;DHT22;32398;49.112;8.598;2023-11-19T07:29:32;10.70;99.90
46139;DHT22;32398;49.112;8.598;2023-11-19T07:31:58;10.70;99.90
46139;DHT22;32398;49.112;8.598;2023-11-19T07:34:27;10.70;99.90
46139;DHT22;32398;49.112;8.598;2023-11-19T07:36:55;10.70;99.90
46139;DHT22;32398;49.112;8.598;2023-11-19T07:39:24;10.70;99.90
46139;DHT22;32398;49.112;8.598;2023-11-19T07:41:51;10.70;99.90
46139;DHT22;32398;49.112;8.598;2023-11-19T07:44:17;10.70;99.90
46139;DHT22;32398;49.112;8.598;2023-11-19T07:46:44;10.70;99.90
46139;DHT22;32398;49.112;8.598;2023-11-19T07:49:11;10.70;99.90
46139;DHT22;32398;49.112;8.598;2023-11-19T07:51:37;10.70;99.90
46139;DHT22;32398;49.112;8.598;2023-11-19T07:54:05;10.70;99.90
46139;DHT22;32398;49.112;8.598;2023-11-19T07:56:33;10.70;99.90
46139;DHT22;32398;49.112;8.598;2023-11-19T07:59:00;10.70;99.90
46139;DHT22;32398;49.112;8.598;2023-11-19T08:01:27;10.80;99.90
46139;DHT22;32398;49.112;8.598;2023-11-19T08:03:53;10.80;99.90
46139;DHT22;32398;49.112;8.598;2023-11-19T08:06:20;10.80;99.90
46139;DHT22;32398;49.112;8.598;2023-11-19T08:08:47;10.70;99.90
46139;DHT22;32398;49.112;8.598;2023-11-19T08:11:15;10.80;99.90
46139;DHT22;32398;49.112;8.598;2023-11-19T08:13:42;10.80;99.90
46139;DHT22;32398;49.112;8.598;2023-11-19T08:16:08;10.80;99.90
46139;DHT22;32398;49.112;8.598;2023-11-19T08:18:36;10.80;99.90
46139;DHT22;32398;49.112;8.598;2023-11-19T08:21:02;10.80;99.90
46139;DHT22;32398;49.112;8.598;2023-11-19T08:23:30;10.80;99.90
46139;DHT22;32398;49.112;8.598;2023-11-19T08:25:56;10.90;99.90
46139;DHT22;32398;49.112;8.598;2023-11-19T08:28:24;10.80;99.90
46139;DHT22;32398;49.112;8.598;2023-11-19T08:30:51;10.90;99.90
46139;DHT22;32398;49.112;8.598;2023-11-19T08:33:17;10.90;99.90
46139;DHT22;32398;49.112;8.598;2023-11-19T08:35:44;10.90;99.90
46139;DHT22;32398;49.112;8.598;2023-11-19T08:38:12;10.90;99.90
46139;DHT22;32398;49.112;8.598;2023-11-19T08:40:39;10.90;99.90
46139;DHT22;32398;49.112;8.598;2023-11-19T08:43:05;10.90;99.90
46139;DHT22;32398;49.112;8.598;2023-11-19T08:45:34;10.90;99.90
46139;DHT22;32398;49.112;8.598;2023-11-19T08:48:01;10.90;99.90
46139;DHT22;32398;49.112;8.598;2023-11-19T08:50:28;10.90;99.90
46139;DHT22;32398;49.112;8.598;2023-11-19T08:52:54;11.00;99.90
46139;DHT22;32398;49.112;8.598;2023-11-19T08:55:21;11.00;99.90
46139;DHT22;32398;49.112;8.598;2023-11-19T08:57:48;11.00;99.90
46139;DHT22;32398;49.112;8.598;2023-11-19T09:00:14;11.00;99.90
46139;DHT22;32398;49.112;8.598;2023-11-19T09:02:42;11.00;99.90
46139;DHT22;32398;49.112;8.598;2023-11-19T09:05:09;11.00;99.90
46139;DHT22;32398;49.112;8.598;2023-11-19T09:07:35;11.10;99.90
46139;DHT22;32398;49.112;8.598;2023-11-19T09:10:02;11.10;99.90
46139;DHT22;32398;49.112;8.598;2023-11-19T09:12:30;11.10;99.90
46139;DHT22;32398;49.112;8.598;2023-11-19T09:14:57;11.10;99.90
46139;DHT22;32398;49.112;8.598;2023-11-19T09:17:23;11.10;99.90
46139;DHT22;32398;49.112;8.598;2023-11-19T09:19:51;11.20;99.90
46139;DHT22;32398;49.112;8.598;2023-11-19T09:22:18;11.20;99.90
46139;DHT22;32398;49.112;8.598;2023-11-19T09:24:45;11.20;99.90
46139;DHT22;32398;49.112;8.598;2023-11-19T09:27:11;11.20;99.90
46139;DHT22;32398;49.112;8.598;2023-11-19T09:29:38;11.20;99.90
46139;DHT22;32398;49.112;8.598;2023-11-19T09:32:05;11.10;99.90
46139;DHT22;32398;49.112;8.598;2023-11-19T09:34:31;11.20;99.90
46139;DHT22;32398;49.112;8.598;2023-11-19T09:36:59;11.20;99.90
46139;DHT22;32398;49.112;8.598;2023-11-19T09:39:27;11.30;99.90
46139;DHT22;32398;49.112;8.598;2023-11-19T09:41:54;11.20;99.90
46139;DHT22;32398;49.112;8.598;2023-11-19T09:44:20;11.30;99.90
46139;DHT22;32398;49.112;8.598;2023-11-19T09:46:47;11.30;99.90
46139;DHT22;32398;49.112;8.598;2023-11-19T09:49:14;11.30;99.90
46139;DHT22;32398;49.112;8.598;2023-11-19T09:51:42;11.40;99.90
46139;DHT22;32398;49.112;8.598;2023-11-19T09:54:10;11.40;99.90
46139;DHT22;32398;49.112;8.598;2023-11-19T09:56:38;11.40;99.90
46139;DHT22;32398;49.112;8.598;2023-11-19T09:59:05;11.40;99.90
46139;DHT22;32398;49.112;8.598;2023-11-19T10:01:31;11.40;99.90
46139;DHT22;32398;49.112;8.598;2023-11-19T10:03:59;11.50;99.90
46139;DHT22;32398;49.112;8.598;2023-11-19T10:06:26;11.50;99.90
46139;DHT22;32398;49.112;8.598;2023-11-19T10:08:53;11.60;99.90
46139;DHT22;32398;49.112;8.598;2023-11-19T10:11:22;11.60;99.90
46139;DHT22;32398;49.112;8.598;2023-11-19T10:13:48;11.60;99.90
46139;DHT22;32398;49.112;8.598;2023-11-19T10:16:15;11.60;99.90
46139;DHT22;32398;49.112;8.598;2023-11-19T10:18:45;11.60;99.90
46139;DHT22;32398;49.112;8.598;2023-11-19T10:21:11;11.70;99.90
46139;DHT22;32398;49.112;8.598;2023-11-19T10:23:47;11.70;99.90
46139;DHT22;32398;49.112;8.598;2023-11-19T10:26:14;11.80;99.90
46139;DHT22;32398;49.112;8.598;2023-11-19T10:28:42;11.90;99.90
46139;DHT22;32398;49.112;8.598;2023-11-19T10:31:11;11.90;99.90
46139;DHT22;32398;49.112;8.598;2023-11-19T10:33:38;12.00;99.90
46139;DHT22;32398;49.112;8.598;2023-11-19T10:36:05;12.00;99.90
46139;DHT22;32398;49.112;8.598;2023-11-19T10:38:32;12.10;99.90
46139;DHT22;32398;49.112;8.598;2023-11-19T10:40:58;12.10;99.90
46139;DHT22;32398;49.112;8.598;2023-11-19T10:43:25;12.20;99.90
46139;DHT22;32398;49.112;8.598;2023-11-19T10:45:54;12.20;99.90
46139;DHT22;32398;49.112;8.598;2023-11-19T10:48:34;12.30;99.90
46139;DHT22;32398;49.112;8.598;2023-11-19T10:51:01;12.40;99.90
46139;DHT22;32398;49.112;8.598;2023-11-19T10:53:31;12.40;99.90
46139;DHT22;32398;49.112;8.598;2023-11-19T10:55:59;12.40;99.90
46139;DHT22;32398;49.112;8.598;2023-11-19T10:58:28;12.50;99.90
46139;DHT22;32398;49.112;8.598;2023-11-19T11:00:57;12.50;99.90
46139;DHT22;32398;49.112;8.598;2023-11-19T11:03:24;12.50;99.90
46139;DHT22;32398;49.112;8.598;2023-11-19T11:05:52;12.50;99.90
46139;DHT22;32398;49.112;8.598;2023-11-19T11:08:19;12.50;99.90
46139;DHT22;32398;49.112;8.598;2023-11-19T11:10:48;12.50;99.90
46139;DHT22;32398;49.112;8.598;2023-11-19T11:13:18;12.50;99.90
46139;DHT22;32398;49.112;8.598;2023-11-19T11:15:45;12.60;99.90
46139;DHT22;32398;49.112;8.598;2023-11-19T11:18:14;12.50;99.90
46139;DHT22;32398;49.112;8.598;2023-11-19T11:20:41;12.60;99.90
46139;DHT22;32398;49.112;8.598;2023-11-19T11:25:54;12.60;99.90
46139;DHT22;32398;49.112;8.598;2023-11-19T11:28:26;12.60;99.90
46139;DHT22;32398;49.112;8.598;2023-11-19T11:31:06;12.60;99.90
46139;DHT22;32398;49.112;8.598;2023-11-19T11:33:42;12.60;99.90
46139;DHT22;32398;49.112;8.598;2023-11-19T11:36:12;12.70;99.90
46139;DHT22;32398;49.112;8.598;2023-11-19T11:38:40;12.70;99.90
46139;DHT22;32398;49.112;8.598;2023-11-19T11:41:17;12.80;99.90
46139;DHT22;32398;49.112;8.598;2023-11-19T11:43:45;12.80;99.90
46139;DHT22;32398;49.112;8.598;2023-11-19T11:48:59;12.90;99.90
46139;DHT22;32398;49.112;8.598;2023-11-19T11:54:08;13.00;99.90
46139;DHT22;32398;49.112;8.598;2023-11-19T11:56:36;13.10;99.90
46139;DHT22;32398;49.112;8.598;2023-11-19T11:59:03;13.10;99.90
46139;DHT22;32398;49.112;8.598;2023-11-19T12:01:33;13.10;99.90
46139;DHT22;32398;49.112;8.598;2023-11-19T12:04:02;13.20;99.90
46139;DHT22;32398;49.112;8.598;2023-11-19T12:06:31;13.20;99.90
46139;DHT22;32398;49.112;8.598;2023-11-19T12:08:59;13.30;99.90
46139;DHT22;32398;49.112;8.598;2023-11-19T12:11:25;13.40;99.90
46139;DHT22;32398;49.112;8.598;2023-11-19T12:13:54;13.40;99.90
46139;DHT22;32398;49.112;8.598;2023-11-19T12:16:27;13.40;99.90
46139;DHT22;32398;49.112;8.598;2023-11-19T12:18:54;13.50;99.90
46139;DHT22;32398;49.112;8.598;2023-11-19T12:21:29;13.60;99.90
46139;DHT22;32398;49.112;8.598;2023-11-19T12:23:57;13.60;99.90
46139;DHT22;32398;49.112;8.598;2023-11-19T12:26:33;13.70;99.90
46139;DHT22;32398;49.112;8.598;2023-11-19T12:29:00;13.70;99.90
46139;DHT22;32398;49.112;8.598;2023-11-19T12:31:29;13.80;99.90
46139;DHT22;32398;49.112;8.598;2023-11-19T12:33:55;13.90;99.90
46139;DHT22;32398;49.112;8.598;2023-11-19T12:36:22;13.90;99.90
46139;DHT22;32398;49.112;8.598;2023-11-19T12:38:50;13.90;99.90
46139;DHT22;32398;49.112;8.598;2023-11-19T12:41:16;13.90;99.90
46139;DHT22;32398;49.112;8.598;2023-11-19T12:43:47;13.90;99.90
46139;DHT22;32398;49.112;8.598;2023-11-19T12:46:17;13.90;99.90
46139;DHT22;32398;49.112;8.598;2023-11-19T12:48:45;13.90;99.90
46139;DHT22;32398;49.112;8.598;2023-11-19T12:51:11;13.90;99.90
46139;DHT22;32398;49.112;8.598;2023-11-19T12:53:47;13.90;99.90
46139;DHT22;32398;49.112;8.598;2023-11-19T12:56:15;13.90;99.90
46139;DHT22;32398;49.112;8.598;2023-11-19T12:58:42;13.80;99.90
46139;DHT22;32398;49.112;8.598;2023-11-19T13:01:09;13.80;99.90
46139;DHT22;32398;49.112;8.598;2023-11-19T13:03:36;13.80;99.90
46139;DHT22;32398;49.112;8.598;2023-11-19T13:06:04;13.70;99.90
46139;DHT22;32398;49.112;8.598;2023-11-19T13:08:36;13.60;99.90
46139;DHT22;32398;49.112;8.598;2023-11-19T13:11:04;13.70;99.90
46139;DHT22;32398;49.112;8.598;2023-11-19T13:13:32;13.60;99.90
46139;DHT22;32398;49.112;8.598;2023-11-19T13:16:01;13.60;99.90
46139;DHT22;32398;49.112;8.598;2023-11-19T13:18:28;13.60;99.90
46139;DHT22;32398;49.112;8.598;2023-11-19T13:20:54;13.60;99.90
46139;DHT22;32398;49.112;8.598;2023-11-19T13:23:22;13.50;99.90
46139;DHT22;32398;49.112;8.598;2023-11-19T13:25:49;13.50;99.90
46139;DHT22;32398;49.112;8.598;2023-11-19T13:28:15;13.50;99.90
46139;DHT22;32398;49.112;8.598;2023-11-19T13:30:43;13.50;99.90
46139;DHT22;32398;49.112;8.598;2023-11-19T13:33:10;13.50;99.90
46139;DHT22;32398;49.112;8.598;2023-11-19T13:35:38;13.50;99.90
46139;DHT22;32398;49.112;8.598;2023-11-19T13:38:05;13.50;99.90
46139;DHT22;32398;49.112;8.598;2023-11-19T13:40:34;13.50;99.90
46139;DHT22;32398;49.112;8.598;2023-11-19T13:43:00;13.50;99.90
46139;DHT22;32398;49.112;8.598;2023-11-19T13:45:27;13.50;99.90
46139;DHT22;32398;49.112;8.598;2023-11-19T13:47:55;13.40;99.90
46139;DHT22;32398;49.112;8.598;2023-11-19T13:50:21;13.40;99.90
46139;DHT22;32398;49.112;8.598;2023-11-19T13:52:48;13.40;99.90
46139;DHT22;32398;49.112;8.598;2023-11-19T13:55:15;13.40;99.90
46139;DHT22;32398;49.112;8.598;2023-11-19T13:57:42;13.40;99.90
46139;DHT22;32398;49.112;8.598;2023-11-19T14:00:09;13.50;99.90
46139;DHT22;32398;49.112;8.598;2023-11-19T14:02:38;13.50;99.90
46139;DHT22;32398;49.112;8.598;2023-11-19T14:05:07;13.50;99.90
46139;DHT22;32398;49.112;8.598;2023-11-19T14:07:33;13.40;99.90
46139;DHT22;32398;49.112;8.598;2023-11-19T14:10:00;13.40;99.90
46139;DHT22;32398;49.112;8.598;2023-11-19T14:12:27;13.40;99.90
46139;DHT22;32398;49.112;8.598;2023-11-19T14:14:53;13.40;99.90
46139;DHT22;32398;49.112;8.598;2023-11-19T14:17:20;13.40;99.90
46139;DHT22;32398;49.112;8.598;2023-11-19T14:19:47;13.40;99.90
46139;DHT22;32398;49.112;8.598;2023-11-19T14:22:15;13.40;99.90
46139;DHT22;32398;49.112;8.598;2023-11-19T14:24:42;13.40;99.90
46139;DHT22;32398;49.112;8.598;2023-11-19T14:27:08;13.40;99.90
46139;DHT22;32398;49.112;8.598;2023-11-19T14:29:35;13.40;99.90
46139;DHT22;32398;49.112;8.598;2023-11-19T14:32:02;13.40;99.90
46139;DHT22;32398;49.112;8.598;2023-11-19T14:34:29;13.40;99.90
46139;DHT22;32398;49.112;8.598;2023-11-19T14:36:55;13.40;99.90
46139;DHT22;32398;49.112;8.598;2023-11-19T14:39:23;13.50;99.90
46139;DHT22;32398;49.112;8.598;2023-11-19T14:41:50;13.40;99.90
46139;DHT22;32398;49.112;8.598;2023-11-19T14:44:17;13.50;99.90
46139;DHT22;32398;49.112;8.598;2023-11-19T14:46:45;13.40;99.90
46139;DHT22;32398;49.112;8.598;2023-11-19T14:49:12;13.40;99.90
46139;DHT22;32398;49.112;8.598;2023-11-19T14:51:39;13.40;99.90
46139;DHT22;32398;49.112;8.598;2023-11-19T14:54:06;13.40;99.90
46139;DHT22;32398;49.112;8.598;2023-11-19T14:56:34;13.40;99.90
46139;DHT22;32398;49.112;8.598;2023-11-19T14:59:00;13.40;99.90
46139;DHT22;32398;49.112;8.598;2023-11-19T15:01:27;13.40;99.90
46139;DHT22;32398;49.112;8.598;2023-11-19T15:03:56;13.40;99.90
46139;DHT22;32398;49.112;8.598;2023-11-19T15:06:23;13.40;99.90
46139;DHT22;32398;49.112;8.598;2023-11-19T15:08:49;13.40;99.90
46139;DHT22;32398;49.112;8.598;2023-11-19T15:11:16;13.40;99.90
46139;DHT22;32398;49.112;8.598;2023-11-19T15:13:44;13.40;99.90
46139;DHT22;32398;49.112;8.598;2023-11-19T15:16:11;13.30;99.90
46139;DHT22;32398;49.112;8.598;2023-11-19T15:18:39;13.30;99.90
46139;DHT22;32398;49.112;8.598;2023-11-19T15:21:06;13.30;99.90
46139;DHT22;32398;49.112;8.598;2023-11-19T15:23:33;13.30;99.90
46139;DHT22;32398;49.112;8.598;2023-11-19T15:26:00;13.30;99.90
46139;DHT22;32398;49.112;8.598;2023-11-19T15:28:26;13.30;99.90
46139;DHT22;32398;49.112;8.598;2023-11-19T15:30:54;13.30;99.90
46139;DHT22;32398;49.112;8.598;2023-11-19T15:33:21;13.30;99.90
46139;DHT22;32398;49.112;8.598;2023-11-19T15:35:47;13.30;99.90
46139;DHT22;32398;49.112;8.598;2023-11-19T15:38:14;13.30;99.90
46139;DHT22;32398;49.112;8.598;2023-11-19T15:40:40;13.30;99.90
46139;DHT22;32398;49.112;8.598;2023-11-19T15:43:08;13.20;99.90